createdAt,value
2023-01-07T00:00:17.646Z,101688.06
2023-01-07T00:02:51.900Z,101687.16
2023-01-07T00:05:23.945Z,101686.25
2023-01-07T00:07:55.923Z,101678.44
2023-01-07T00:10:27.911Z,101679.25
2023-01-07T00:12:59.926Z,101675.97
2023-01-07T00:15:31.871Z,101677.81
2023-01-07T00:18:03.923Z,101678.84
2023-01-07T00:20:35.941Z,101679.78
2023-01-07T00:23:07.896Z,101679.75
2023-01-07T00:25:39.818Z,101673.00
2023-01-07T00:28:11.822Z,101673.09
2023-01-07T00:30:43.893Z,101665.31
2023-01-07T00:33:16.866Z,101656.69
2023-01-07T00:35:48.849Z,101654.94
2023-01-07T00:38:20.807Z,101650.63
2023-01-07T00:40:52.725Z,101650.56
2023-01-07T00:43:24.778Z,101655.81
2023-01-07T00:45:56.911Z,101655.03
2023-01-07T00:48:29.353Z,101662.03
2023-01-07T00:51:01.296Z,101655.19
2023-01-07T00:53:33.260Z,101660.44
2023-01-07T00:56:05.717Z,101667.56
2023-01-07T00:58:38.027Z,101652.94
2023-01-07T01:01:11.469Z,101656.50
2023-01-07T01:03:43.802Z,101646.94
2023-01-07T01:06:16.935Z,101640.88
2023-01-07T01:08:49.066Z,101646.06
2023-01-07T01:11:20.990Z,101637.38
2023-01-07T01:13:53.044Z,101636.56
2023-01-07T01:16:25.371Z,101620.09
2023-01-07T01:18:57.447Z,101626.22
2023-01-07T01:21:29.480Z,101615.00
2023-01-07T01:24:01.426Z,101617.66
2023-01-07T01:26:33.410Z,101609.91
2023-01-07T01:29:05.962Z,101621.25
2023-01-07T01:31:37.998Z,101625.63
2023-01-07T01:34:10.000Z,101630.00
2023-01-07T01:36:42.025Z,101636.09
2023-01-07T01:39:14.355Z,101643.00
2023-01-07T01:41:47.490Z,101638.59
2023-01-07T01:44:39.859Z,101630.75
2023-01-07T01:47:18.009Z,101623.84
2023-01-07T01:50:14.676Z,101628.22
2023-01-07T01:53:30.722Z,101629.19
2023-01-07T01:56:12.796Z,101624.91
2023-01-07T01:59:07.367Z,101620.66
2023-01-07T02:01:39.699Z,101617.28
2023-01-07T02:04:16.667Z,101617.16
2023-01-07T02:06:56.342Z,101618.16
2023-01-07T02:09:28.885Z,101626.06
2023-01-07T02:12:16.454Z,101617.28
2023-01-07T02:15:40.687Z,101616.47
2023-01-07T02:19:00.254Z,101611.22
2023-01-07T02:21:58.358Z,101611.16
2023-01-07T02:24:59.295Z,101598.06
2023-01-07T02:28:05.697Z,101594.63
2023-01-07T02:31:08.431Z,101598.06
2023-01-07T02:33:46.466Z,101598.09
2023-01-07T02:36:47.014Z,101592.91
2023-01-07T02:39:37.579Z,101590.31
2023-01-07T02:42:43.080Z,101588.56
2023-01-07T02:45:17.691Z,101587.66
2023-01-07T02:48:01.995Z,101571.03
2023-01-07T02:50:33.963Z,101564.13
2023-01-07T02:53:11.485Z,101561.59
2023-01-07T02:56:30.814Z,101555.44
2023-01-07T02:59:23.054Z,101562.44
2023-01-07T03:02:51.138Z,101563.38
2023-01-07T03:05:55.669Z,101559.97
2023-01-07T03:09:03.984Z,101560.91
2023-01-07T03:11:56.519Z,101553.19
2023-01-07T03:14:43.174Z,101554.06
2023-01-07T03:17:21.439Z,101555.84
2023-01-07T03:19:58.093Z,101553.25
2023-01-07T03:22:33.168Z,101548.91
2023-01-07T03:25:07.167Z,101541.91
2023-01-07T03:27:41.720Z,101543.66
2023-01-07T03:30:17.554Z,101546.31
2023-01-07T03:32:58.631Z,101547.19
2023-01-07T03:35:34.399Z,101546.38
2023-01-07T03:38:08.121Z,101539.44
2023-01-07T03:40:40.117Z,101541.22
2023-01-07T03:43:19.964Z,101534.22
2023-01-07T03:45:53.492Z,101536.84
2023-01-07T03:48:25.492Z,101538.56
2023-01-07T03:50:57.473Z,101541.19
2023-01-07T03:53:29.427Z,101535.06
2023-01-07T03:56:01.354Z,101527.19
2023-01-07T03:58:33.283Z,101534.22
2023-01-07T04:01:05.362Z,101528.16
2023-01-07T04:03:37.381Z,101526.41
2023-01-07T04:06:09.411Z,101526.47
2023-01-07T04:08:41.360Z,101527.31
2023-01-07T04:11:13.295Z,101516.84
2023-01-07T04:13:45.224Z,101524.75
2023-01-07T04:16:17.227Z,101524.78
2023-01-07T04:18:49.193Z,101516.97
2023-01-07T04:21:21.207Z,101516.13
2023-01-07T04:23:53.247Z,101517.84
2023-01-07T04:26:25.243Z,101514.38
2023-01-07T04:28:57.287Z,101506.53
2023-01-07T04:31:29.248Z,101503.03
2023-01-07T04:34:01.235Z,101502.19
2023-01-07T04:36:33.771Z,101499.56
2023-01-07T04:39:05.699Z,101501.28
2023-01-07T04:41:37.717Z,101498.59
2023-01-07T04:44:10.011Z,101496.91
2023-01-07T04:46:41.994Z,101492.53
2023-01-07T04:49:13.951Z,101491.69
2023-01-07T04:51:46.407Z,101489.91
2023-01-07T04:54:18.404Z,101497.75
2023-01-07T04:56:50.906Z,101500.34
2023-01-07T04:59:23.311Z,101489.94
2023-01-07T05:01:55.360Z,101485.59
2023-01-07T05:04:27.413Z,101482.16
2023-01-07T05:06:59.571Z,101488.28
2023-01-07T05:09:31.764Z,101485.66
2023-01-07T05:12:04.071Z,101482.22
2023-01-07T05:14:36.083Z,101479.53
2023-01-07T05:17:08.046Z,101485.66
2023-01-07T05:19:39.961Z,101484.78
2023-01-07T05:22:11.981Z,101479.59
2023-01-07T05:24:43.990Z,101475.25
2023-01-07T05:27:15.956Z,101469.16
2023-01-07T05:29:47.937Z,101472.63
2023-01-07T05:32:19.931Z,101471.75
2023-01-07T05:34:51.861Z,101476.13
2023-01-07T05:37:23.816Z,101470.88
2023-01-07T05:39:55.809Z,101469.13
2023-01-07T05:42:27.878Z,101478.72
2023-01-07T05:44:59.902Z,101480.44
2023-01-07T05:47:32.077Z,101483.06
2023-01-07T05:50:04.925Z,101473.50
2023-01-07T05:52:36.918Z,101471.78
2023-01-07T05:55:09.481Z,101477.00
2023-01-07T05:57:41.497Z,101482.25
2023-01-07T06:00:14.585Z,101474.41
2023-01-07T06:02:46.533Z,101477.91
2023-01-07T06:05:18.614Z,101479.69
2023-01-07T06:07:50.633Z,101480.56
2023-01-07T06:10:22.606Z,101484.06
2023-01-07T06:12:54.596Z,101481.47
2023-01-07T06:15:26.559Z,101481.47
2023-01-07T06:17:58.550Z,101479.69
2023-01-07T06:20:34.535Z,101483.19
2023-01-07T06:23:06.548Z,101490.19
2023-01-07T06:25:38.492Z,101479.72
2023-01-07T06:28:10.484Z,101476.25
2023-01-07T06:30:46.241Z,101479.72
2023-01-07T06:33:18.596Z,101473.63
2023-01-07T06:35:50.527Z,101476.22
2023-01-07T06:38:22.527Z,101466.63
2023-01-07T06:40:54.519Z,101471.78
2023-01-07T06:43:26.547Z,101474.41
2023-01-07T06:45:58.647Z,101472.66
2023-01-07T06:48:30.616Z,101472.72
2023-01-07T06:51:02.645Z,101475.34
2023-01-07T06:53:34.759Z,101467.50
2023-01-07T06:56:07.066Z,101472.72
2023-01-07T06:58:39.031Z,101475.34
2023-01-07T07:01:11.416Z,101471.00
2023-01-07T07:03:43.551Z,101471.88
2023-01-07T07:06:15.486Z,101465.78
2023-01-07T07:08:47.454Z,101470.16
2023-01-07T07:11:19.536Z,101465.78
2023-01-07T07:13:51.767Z,101469.25
2023-01-07T07:16:24.243Z,101459.66
2023-01-07T07:18:57.073Z,101462.28
2023-01-07T07:21:29.015Z,101456.16
2023-01-07T07:24:01.126Z,101462.22
2023-01-07T07:26:33.091Z,101469.19
2023-01-07T07:29:05.479Z,101465.69
2023-01-07T07:31:37.847Z,101463.06
2023-01-07T07:34:10.726Z,101449.13
2023-01-07T07:36:42.726Z,101458.78
2023-01-07T07:39:15.402Z,101461.41
2023-01-07T07:41:47.354Z,101456.19
2023-01-07T07:44:19.312Z,101455.28
2023-01-07T07:46:51.394Z,101459.66
2023-01-07T07:49:23.516Z,101453.50
2023-01-07T07:51:55.823Z,101453.50
2023-01-07T07:54:28.560Z,101449.13
2023-01-07T07:57:00.642Z,101450.88
2023-01-07T07:59:32.817Z,101445.59
2023-01-07T08:02:04.874Z,101448.16
2023-01-07T08:04:36.856Z,101445.56
2023-01-07T08:07:11.940Z,101445.56
2023-01-07T08:09:43.916Z,101440.31
2023-01-07T08:12:15.873Z,101435.94
2023-01-07T08:14:47.874Z,101444.69
2023-01-07T08:17:19.811Z,101439.44
2023-01-07T08:19:51.854Z,101451.66
2023-01-07T08:22:23.960Z,101449.00
2023-01-07T08:24:56.683Z,101449.91
2023-01-07T08:27:29.159Z,101443.84
2023-01-07T08:30:01.098Z,101444.72
2023-01-07T08:32:33.068Z,101439.44
2023-01-07T08:35:05.657Z,101441.16
2023-01-07T08:37:37.803Z,101442.94
2023-01-07T08:40:12.556Z,101445.59
2023-01-07T08:42:44.545Z,101442.16
2023-01-07T08:45:16.757Z,101449.19
2023-01-07T08:47:48.801Z,101439.59
2023-01-07T08:50:20.769Z,101441.34
2023-01-07T08:52:52.847Z,101437.81
2023-01-07T08:55:25.561Z,101438.69
2023-01-07T08:57:57.723Z,101436.94
2023-01-07T09:00:30.778Z,101427.31
2023-01-07T09:03:03.902Z,101436.94
2023-01-07T09:05:36.223Z,101434.28
2023-01-07T09:08:08.165Z,101431.69
2023-01-07T09:10:40.184Z,101437.78
2023-01-07T09:13:12.282Z,101432.56
2023-01-07T09:15:45.631Z,101424.69
2023-01-07T09:18:17.583Z,101431.66
2023-01-07T09:20:49.514Z,101422.13
2023-01-07T09:23:21.569Z,101429.13
2023-01-07T09:25:53.526Z,101422.09
2023-01-07T09:28:25.542Z,101417.81
2023-01-07T09:30:57.554Z,101421.31
2023-01-07T09:33:29.973Z,101423.91
2023-01-07T09:36:02.543Z,101428.25
2023-01-07T09:38:34.865Z,101415.97
2023-01-07T09:42:05.033Z,101416.00
2023-01-07T09:45:06.589Z,101422.16
2023-01-07T09:47:48.442Z,101414.25
2023-01-07T09:50:47.747Z,101411.66
2023-01-07T09:53:52.094Z,101412.59
2023-01-07T09:56:30.454Z,101409.91
2023-01-07T09:59:05.370Z,101410.69
2023-01-07T10:01:43.731Z,101402.00
2023-01-07T10:04:42.478Z,101401.19
2023-01-07T10:07:40.375Z,101408.16
2023-01-07T10:10:41.688Z,101397.72
2023-01-07T10:14:19.956Z,101394.22
2023-01-07T10:17:22.882Z,101402.06
2023-01-07T10:20:22.831Z,101387.25
2023-01-07T10:23:03.090Z,101387.25
2023-01-07T10:25:40.120Z,101384.69
2023-01-07T10:29:00.203Z,101382.09
2023-01-07T10:31:32.778Z,101376.88
2023-01-07T10:34:13.896Z,101377.75
2023-01-07T10:37:19.703Z,101378.63
2023-01-07T10:40:12.945Z,101376.00
2023-01-07T10:43:18.225Z,101362.91
2023-01-07T10:46:30.747Z,101358.56
2023-01-07T10:49:57.251Z,101342.03
2023-01-07T10:53:30.131Z,101341.16
2023-01-07T10:56:20.627Z,101344.63
2023-01-07T10:58:52.849Z,101335.91
2023-01-07T11:01:31.717Z,101333.28
2023-01-07T11:04:12.173Z,101335.91
2023-01-07T11:07:10.208Z,101327.19
2023-01-07T11:09:44.694Z,101321.94
2023-01-07T11:12:42.801Z,101324.56
2023-01-07T11:15:47.569Z,101325.44
2023-01-07T11:18:36.725Z,101308.00
2023-01-07T11:21:42.773Z,101302.75
2023-01-07T11:24:02.122Z,101301.88
2023-01-07T11:26:34.523Z,101301.00
2023-01-07T11:29:29.779Z,101292.28
2023-01-07T11:32:04.034Z,101284.41
2023-01-07T11:34:48.855Z,101283.53
2023-01-07T11:37:39.977Z,101284.41
2023-01-07T11:40:15.034Z,101282.66
2023-01-07T11:43:23.534Z,101276.56
2023-01-07T11:46:19.085Z,101270.44
2023-01-07T11:49:01.099Z,101268.72
2023-01-07T11:51:40.987Z,101260.88
2023-01-07T11:54:24.907Z,101251.28
2023-01-07T11:57:25.718Z,101253.84
2023-01-07T12:00:16.424Z,101255.59
2023-01-07T12:03:13.505Z,101245.16
2023-01-07T12:05:45.597Z,101243.41
2023-01-07T12:08:22.616Z,101232.06
2023-01-07T12:11:05.037Z,101232.03
2023-01-07T12:13:41.523Z,101226.84
2023-01-07T12:16:13.773Z,101226.78
2023-01-07T12:18:59.514Z,101229.41
2023-01-07T12:22:07.170Z,101201.44
2023-01-07T12:25:12.422Z,101204.94
2023-01-07T12:27:58.629Z,101198.84
2023-01-07T12:30:57.952Z,101189.19
2023-01-07T12:33:37.394Z,101183.13
2023-01-07T12:36:49.008Z,101190.16
2023-01-07T12:39:34.265Z,101184.00
2023-01-07T12:42:19.323Z,101173.59
2023-01-07T12:44:57.615Z,101172.63
2023-01-07T12:47:38.461Z,101166.50
2023-01-07T12:50:16.130Z,101163.03
2023-01-07T12:53:41.601Z,101149.00
2023-01-07T12:56:36.903Z,101147.25
2023-01-07T12:59:47.163Z,101141.09
2023-01-07T13:02:48.667Z,101141.06
2023-01-07T13:05:38.639Z,101134.94
2023-01-07T13:08:38.901Z,101136.66
2023-01-07T13:11:41.841Z,101139.31
2023-01-07T13:14:30.200Z,101134.09
2023-01-07T13:17:17.815Z,101121.91
2023-01-07T13:19:50.746Z,101129.69
2023-01-07T13:22:35.761Z,101125.34
2023-01-07T13:25:36.079Z,101118.38
2023-01-07T13:28:19.710Z,101118.38
2023-01-07T13:31:30.115Z,101114.06
2023-01-07T13:34:14.490Z,101112.34
2023-01-07T13:37:02.828Z,101106.28
2023-01-07T13:40:06.517Z,101102.75
2023-01-07T13:43:06.237Z,101095.69
2023-01-07T13:45:40.530Z,101087.91
2023-01-07T13:48:24.631Z,101092.16
2023-01-07T13:51:03.193Z,101093.00
2023-01-07T13:53:40.056Z,101086.13
2023-01-07T13:56:17.862Z,101081.69
2023-01-07T13:58:55.679Z,101080.00
2023-01-07T14:02:29.077Z,101070.50
2023-01-07T14:05:10.489Z,101063.50
2023-01-07T14:07:55.991Z,101062.63
2023-01-07T14:10:35.020Z,101060.00
2023-01-07T14:13:40.743Z,101056.53
2023-01-07T14:16:28.251Z,101049.69
2023-01-07T14:19:27.345Z,101044.47
2023-01-07T14:22:42.655Z,101043.59
2023-01-07T14:25:45.014Z,101040.13
2023-01-07T14:28:25.902Z,101037.56
2023-01-07T14:30:58.570Z,101030.59
2023-01-07T14:33:34.637Z,101024.47
2023-01-07T14:36:09.641Z,101020.97
2023-01-07T14:38:42.051Z,101015.81
2023-01-07T14:41:18.948Z,101014.06
2023-01-07T14:44:08.938Z,101018.47
2023-01-07T14:46:47.170Z,101008.94
2023-01-07T14:49:57.133Z,101003.75
2023-01-07T14:52:39.164Z,101000.28
2023-01-07T14:55:37.948Z,101002.88
2023-01-07T14:58:34.648Z,101001.16
2023-01-07T15:01:54.627Z,100998.56
2023-01-07T15:05:00.456Z,101000.28
2023-01-07T15:07:37.539Z,100996.81
2023-01-07T15:10:42.161Z,101000.31
2023-01-07T15:13:38.719Z,101001.19
2023-01-07T15:16:12.372Z,100993.38
2023-01-07T15:18:50.220Z,100988.16
2023-01-07T15:21:55.504Z,100982.94
2023-01-07T15:24:54.809Z,100983.81
2023-01-07T15:28:11.562Z,100973.38
2023-01-07T15:31:24.293Z,100969.88
2023-01-07T15:34:11.413Z,100965.53
2023-01-07T15:36:48.266Z,100964.66
2023-01-07T15:39:29.694Z,100959.44
2023-01-07T15:42:02.184Z,100950.75
2023-01-07T15:44:41.357Z,100959.44
2023-01-07T15:47:39.168Z,100946.41
2023-01-07T15:50:37.920Z,100945.53
2023-01-07T15:53:12.879Z,100941.19
2023-01-07T15:56:04.106Z,100936.84
2023-01-07T15:58:45.190Z,100934.22
2023-01-07T16:01:21.972Z,100921.16
2023-01-07T16:03:56.830Z,100915.03
2023-01-07T16:06:31.768Z,100907.22
2023-01-07T16:09:18.465Z,100915.06
2023-01-07T16:11:51.023Z,100912.47
2023-01-07T16:14:26.120Z,100906.38
2023-01-07T16:17:13.533Z,100898.53
2023-01-07T16:19:45.796Z,100905.53
2023-01-07T16:22:21.848Z,100895.94
2023-01-07T16:24:54.110Z,100905.50
2023-01-07T16:27:30.223Z,100895.06
2023-01-07T16:30:05.727Z,100888.97
2023-01-07T16:32:38.598Z,100882.00
2023-01-07T16:35:32.096Z,100894.22
2023-01-07T16:38:04.920Z,100895.06
2023-01-07T16:40:39.281Z,100895.94
2023-01-07T16:43:43.277Z,100899.44
2023-01-07T16:46:30.365Z,100890.72
2023-01-07T16:49:29.539Z,100882.91
2023-01-07T16:52:12.563Z,100888.13
2023-01-07T16:54:46.837Z,100883.78
2023-01-07T16:57:40.319Z,100873.34
2023-01-07T17:00:20.345Z,100866.38
2023-01-07T17:03:00.883Z,100855.09
2023-01-07T17:05:33.779Z,100863.78
2023-01-07T17:08:15.632Z,100864.66
2023-01-07T17:11:00.839Z,100852.47
2023-01-07T17:13:37.118Z,100852.47
2023-01-07T17:16:22.370Z,100842.88
2023-01-07T17:18:55.394Z,100831.59
2023-01-07T17:21:44.097Z,100833.34
2023-01-07T17:24:28.570Z,100827.22
2023-01-07T17:27:04.901Z,100833.31
2023-01-07T17:29:39.510Z,100835.94
2023-01-07T17:32:14.102Z,100826.38
2023-01-07T17:34:46.151Z,100836.81
2023-01-07T17:37:18.596Z,100832.44
2023-01-07T17:39:51.500Z,100832.47
2023-01-07T17:42:48.235Z,100815.94
2023-01-07T17:45:21.021Z,100808.97
2023-01-07T17:47:53.193Z,100804.63
2023-01-07T17:50:30.535Z,100810.72
2023-01-07T17:53:02.952Z,100805.50
2023-01-07T17:55:36.319Z,100807.25
2023-01-07T17:58:30.545Z,100797.69
2023-01-07T18:01:07.944Z,100789.00
2023-01-07T18:03:40.157Z,100795.97
2023-01-07T18:06:24.823Z,100789.88
2023-01-07T18:08:57.058Z,100799.44
2023-01-07T18:11:47.870Z,100801.16
2023-01-07T18:14:20.398Z,100797.69
2023-01-07T18:16:52.917Z,100799.44
2023-01-07T18:19:24.974Z,100795.94
2023-01-07T18:21:56.945Z,100806.38
2023-01-07T18:24:28.884Z,100813.34
2023-01-07T18:27:00.873Z,100803.78
2023-01-07T18:29:32.832Z,100795.09
2023-01-07T18:32:05.016Z,100795.09
2023-01-07T18:34:36.982Z,100796.81
2023-01-07T18:37:09.090Z,100793.34
2023-01-07T18:39:41.222Z,100789.00
2023-01-07T18:42:13.866Z,100775.97
2023-01-07T18:44:45.948Z,100779.41
2023-01-07T18:47:17.955Z,100788.97
2023-01-07T18:49:49.922Z,100788.97
2023-01-07T18:52:21.895Z,100786.38
2023-01-07T18:54:53.842Z,100784.63
2023-01-07T18:57:25.917Z,100790.75
2023-01-07T18:59:57.874Z,100783.75
2023-01-07T19:02:29.953Z,100786.34
2023-01-07T19:05:02.083Z,100778.53
2023-01-07T19:07:35.370Z,100779.44
2023-01-07T19:10:08.174Z,100782.06
2023-01-07T19:12:40.181Z,100776.84
2023-01-07T19:15:12.111Z,100769.88
2023-01-07T19:17:44.424Z,100761.19
2023-01-07T19:20:16.801Z,100763.81
2023-01-07T19:22:48.816Z,100750.78
2023-01-07T19:25:20.836Z,100753.38
2023-01-07T19:27:52.795Z,100749.03
2023-01-07T19:30:25.300Z,100744.69
2023-01-07T19:32:58.921Z,100746.44
2023-01-07T19:35:32.076Z,100741.22
2023-01-07T19:38:04.156Z,100742.06
2023-01-07T19:40:36.210Z,100736.00
2023-01-07T19:43:08.174Z,100723.84
2023-01-07T19:45:41.026Z,100719.47
2023-01-07T19:48:13.347Z,100714.28
2023-01-07T19:50:52.267Z,100710.78
2023-01-07T19:53:25.055Z,100699.50
2023-01-07T19:56:06.876Z,100697.75
2023-01-07T19:58:39.887Z,100689.06
2023-01-07T20:01:16.038Z,100676.91
2023-01-07T20:03:48.223Z,100672.56
2023-01-07T20:06:24.676Z,100666.47
2023-01-07T20:08:58.719Z,100665.63
2023-01-07T20:11:30.678Z,100663.00
2023-01-07T20:14:02.657Z,100649.94
2023-01-07T20:16:37.016Z,100650.81
2023-01-07T20:19:13.837Z,100649.94
2023-01-07T20:21:46.819Z,100642.09
2023-01-07T20:24:18.829Z,100630.81
2023-01-07T20:26:51.867Z,100637.75
2023-01-07T20:29:25.268Z,100638.59
2023-01-07T20:31:57.372Z,100630.78
2023-01-07T20:34:29.963Z,100627.31
2023-01-07T20:37:02.209Z,100625.56
2023-01-07T20:39:34.236Z,100620.34
2023-01-07T20:42:06.319Z,100618.63
2023-01-07T20:44:39.547Z,100618.69
2023-01-07T20:47:11.498Z,100615.16
2023-01-07T20:49:45.194Z,100610.81
2023-01-07T20:52:17.157Z,100619.50
2023-01-07T20:54:49.561Z,100624.69
2023-01-07T20:57:21.506Z,100627.25
2023-01-07T20:59:53.740Z,100636.78
2023-01-07T21:02:25.876Z,100642.91
2023-01-07T21:04:57.988Z,100646.34
2023-01-07T21:07:30.029Z,100652.44
2023-01-07T21:10:02.059Z,100650.69
2023-01-07T21:12:33.998Z,100641.13
2023-01-07T21:15:06.928Z,100641.97
2023-01-07T21:17:42.508Z,100642.84
2023-01-07T21:20:15.967Z,100647.22
2023-01-07T21:22:48.293Z,100643.72
2023-01-07T21:25:20.241Z,100641.13
2023-01-07T21:27:52.259Z,100626.34
2023-01-07T21:30:24.223Z,100622.88
2023-01-07T21:32:56.493Z,100620.31
2023-01-07T21:35:28.502Z,100609.88
2023-01-07T21:38:00.564Z,100599.44
2023-01-07T21:40:32.648Z,100597.72
2023-01-07T21:43:04.568Z,100593.41
2023-01-07T21:45:37.013Z,100589.94
2023-01-07T21:48:08.985Z,100588.22
2023-01-07T21:50:41.105Z,100590.84
2023-01-07T21:53:13.045Z,100595.16
2023-01-07T21:55:45.171Z,100593.41
2023-01-07T21:58:17.130Z,100593.44
2023-01-07T22:00:53.381Z,100597.72
2023-01-07T22:03:25.424Z,100600.28
2023-01-07T22:06:00.485Z,100602.03
2023-01-07T22:08:32.529Z,100593.31
2023-01-07T22:11:04.609Z,100607.22
2023-01-07T22:13:36.546Z,100593.31
2023-01-07T22:16:09.805Z,100577.66
2023-01-07T22:18:41.888Z,100570.69
2023-01-07T22:21:14.530Z,100574.16
2023-01-07T22:23:47.867Z,100569.81
2023-01-07T22:26:21.191Z,100581.13
2023-01-07T22:29:01.851Z,100584.59
2023-01-07T22:31:36.879Z,100576.75
2023-01-07T22:34:09.852Z,100578.50
2023-01-07T22:36:51.741Z,100570.63
2023-01-07T22:39:34.869Z,100573.22
2023-01-07T22:42:46.587Z,100557.56
2023-01-07T22:45:44.416Z,100559.28
2023-01-07T22:48:23.972Z,100555.81
2023-01-07T22:51:02.702Z,100566.22
2023-01-07T22:53:34.976Z,100560.09
2023-01-07T22:56:07.751Z,100565.28
2023-01-07T22:58:39.738Z,100560.88
2023-01-07T23:01:14.854Z,100557.44
2023-01-07T23:03:47.192Z,100554.88
2023-01-07T23:06:19.384Z,100561.75
2023-01-07T23:08:51.350Z,100557.44
2023-01-07T23:11:41.652Z,100547.03
2023-01-07T23:14:14.206Z,100541.78
2023-01-07T23:16:46.691Z,100546.09
2023-01-07T23:19:20.356Z,100531.28
2023-01-07T23:21:54.857Z,100526.94
2023-01-07T23:24:27.018Z,100520.84
2023-01-07T23:26:59.044Z,100524.31
2023-01-07T23:29:31.030Z,100526.00
2023-01-07T23:32:03.024Z,100525.13
2023-01-07T23:34:35.082Z,100522.56
2023-01-07T23:37:07.081Z,100526.03
2023-01-07T23:39:39.070Z,100524.28
2023-01-07T23:42:11.059Z,100512.88
2023-01-07T23:44:43.070Z,100522.53
2023-01-07T23:47:15.028Z,100527.72
2023-01-07T23:49:46.970Z,100522.56
2023-01-07T23:52:19.417Z,100512.03
2023-01-07T23:54:51.487Z,100503.25
2023-01-07T23:57:23.508Z,100493.69
2023-01-07T23:59:55.484Z,100491.94
